Time;durP1;ratioP1;P1;durP2;ratioP2;P2;SDS_P1;SDS_P2;PMS_P1;PMS_P2;Temp;Humidity;BMP_temperature;BMP_pressure;BME280_temperature;BME280_humidity;BME280_pressure;Samples;Min_cycle;Max_cycle;Signal;HPM_P1;HPM_P2
2023/09/09 00:02:39;0.00;0.00;0.62;0.00;0.00;0.62;6.43;5.93;;;29.60;29.10;;;;;;2252177;61;20413;-62
2023/09/09 00:05:28;0.00;0.00;0.62;0.00;0.00;0.62;6.73;5.33;;;29.50;29.10;;;;;;2252212;61;20897;-58
2023/09/09 00:08:12;0.00;0.00;0.62;0.00;0.00;0.62;6.23;5.20;;;29.50;29.20;;;;;;2251993;61;20515;-57
2023/09/09 00:10:57;0.00;0.00;0.62;0.00;0.00;0.62;6.30;5.70;;;29.40;29.20;;;;;;2252394;61;20363;-55
2023/09/09 00:13:42;0.00;0.00;0.62;0.00;0.00;0.62;10.23;5.30;;;29.40;29.30;;;;;;2252093;61;20429;-61
2023/09/09 00:16:32;0.00;0.00;0.62;0.00;0.00;0.62;6.03;5.43;;;29.30;29.30;;;;;;2252069;61;20430;-61
2023/09/09 00:19:21;0.00;0.00;0.62;0.00;0.00;0.62;8.47;5.43;;;29.30;29.40;;;;;;2252324;61;20371;-55
2023/09/09 00:22:06;0.00;0.00;0.62;0.00;0.00;0.62;6.50;5.90;;;29.30;29.40;;;;;;2251862;61;20371;-55
2023/09/09 00:24:50;0.00;0.00;0.62;0.00;0.00;0.62;7.60;5.50;;;29.30;29.50;;;;;;2251861;61;20575;-58
2023/09/09 00:27:35;0.00;0.00;0.62;0.00;0.00;0.62;5.83;5.33;;;29.20;29.50;;;;;;2251735;61;20399;-60
2023/09/09 00:30:19;0.00;0.00;0.62;0.00;0.00;0.62;6.83;5.80;;;29.20;29.60;;;;;;2252193;61;20421;-56
2023/09/09 00:33:07;0.00;0.00;0.62;0.00;0.00;0.62;7.03;6.33;;;29.20;29.60;;;;;;2252933;61;20365;-55
2023/09/09 00:35:53;0.00;0.00;0.62;0.00;0.00;0.62;6.07;5.47;;;29.10;29.60;;;;;;2252489;61;20359;-59
2023/09/09 00:38:37;0.00;0.00;0.62;0.00;0.00;0.62;7.07;6.30;;;29.10;29.60;;;;;;2252673;61;20429;-60
2023/09/09 00:41:23;0.00;0.00;0.62;0.00;0.00;0.62;5.90;5.33;;;29.00;29.60;;;;;;2252539;61;20366;-56
2023/09/09 00:44:09;0.00;0.00;0.62;0.00;0.00;0.62;6.90;5.40;;;29.00;29.70;;;;;;2251798;61;20687;-57
2023/09/09 00:46:55;0.00;0.00;0.62;0.00;0.00;0.62;5.50;5.00;;;29.00;29.80;;;;;;2252384;61;20430;-64
2023/09/09 00:49:40;0.00;0.00;0.62;0.00;0.00;0.62;6.07;5.47;;;29.00;29.80;;;;;;2252359;61;20365;-56
2023/09/09 00:52:26;0.00;0.00;0.62;0.00;0.00;0.62;6.33;5.30;;;28.90;29.80;;;;;;2252450;61;20362;-63
2023/09/09 00:55:11;0.00;0.00;0.62;0.00;0.00;0.62;6.23;5.40;;;28.90;29.90;;;;;;2252643;61;20830;-59
2023/09/09 00:57:56;0.00;0.00;0.62;0.00;0.00;0.62;6.10;5.50;;;28.90;29.90;;;;;;2252607;61;20441;-57
2023/09/09 01:00:41;0.00;0.00;0.62;0.00;0.00;0.62;6.00;5.20;;;28.90;30.00;;;;;;2252693;61;20350;-59
2023/09/09 01:03:25;0.00;0.00;0.62;0.00;0.00;0.62;7.13;5.90;;;28.80;30.00;;;;;;2252792;61;20390;-54
2023/09/09 01:06:10;0.00;0.00;0.62;0.00;0.00;0.62;6.27;5.20;;;28.80;30.00;;;;;;2252467;61;20366;-58
2023/09/09 01:08:56;0.00;0.00;0.62;0.00;0.00;0.62;7.40;5.17;;;28.80;30.00;;;;;;2252622;61;20398;-55
2023/09/09 01:11:40;0.00;0.00;0.62;0.00;0.00;0.62;4.93;4.50;;;28.70;30.00;;;;;;2252880;61;20370;-60
2023/09/09 01:14:25;0.00;0.00;0.62;0.00;0.00;0.62;6.53;5.53;;;28.70;30.10;;;;;;2252115;61;20391;-60
2023/09/09 01:17:10;0.00;0.00;0.62;0.00;0.00;0.62;7.50;5.33;;;28.70;30.10;;;;;;2252223;61;20402;-57
2023/09/09 01:19:58;0.00;0.00;0.62;0.00;0.00;0.62;8.53;5.20;;;28.70;30.30;;;;;;2252932;61;20362;-60
2023/09/09 01:22:48;0.00;0.00;0.62;0.00;0.00;0.62;6.23;5.63;;;28.60;30.30;;;;;;2252163;61;20494;-53
2023/09/09 01:25:34;0.00;0.00;0.62;0.00;0.00;0.62;6.20;5.60;;;28.60;30.30;;;;;;2252298;61;20375;-55
2023/09/09 01:28:22;0.00;0.00;0.62;0.00;0.00;0.62;7.50;5.53;;;28.60;30.40;;;;;;2252384;61;20495;-57
2023/09/09 01:31:06;0.00;0.00;0.62;0.00;0.00;0.62;6.97;6.27;;;28.50;30.40;;;;;;2252724;61;20374;-57
2023/09/09 01:33:56;0.00;0.00;0.62;0.00;0.00;0.62;5.20;4.70;;;28.50;30.50;;;;;;2252180;61;20810;-54
2023/09/09 01:36:41;0.00;0.00;0.62;0.00;0.00;0.62;6.40;5.67;;;28.50;30.50;;;;;;2249084;61;20454;-58
2023/09/09 01:39:27;0.00;0.00;0.62;0.00;0.00;0.62;7.00;6.10;;;28.50;30.50;;;;;;2264225;58;20498;-57
2023/09/09 01:42:12;0.00;0.00;0.62;0.00;0.00;0.62;6.17;5.57;;;28.40;30.60;;;;;;2252610;61;20374;-61
2023/09/09 01:44:57;0.00;0.00;0.62;0.00;0.00;0.62;6.73;5.60;;;28.40;30.60;;;;;;2250046;61;20395;-56
2023/09/09 01:47:42;0.00;0.00;0.62;0.00;0.00;0.62;5.67;5.13;;;28.40;30.70;;;;;;2247647;61;20411;-56
2023/09/09 01:50:27;0.00;0.00;0.62;0.00;0.00;0.62;6.33;5.17;;;28.40;30.80;;;;;;2248566;61;20400;-57
2023/09/09 01:53:12;0.00;0.00;0.62;0.00;0.00;0.62;6.00;5.50;;;28.30;30.80;;;;;;2248108;61;20364;-57
2023/09/09 01:55:59;0.00;0.00;0.62;0.00;0.00;0.62;6.60;5.90;;;28.30;30.80;;;;;;2245368;61;20879;-56
2023/09/09 01:58:44;0.00;0.00;0.62;0.00;0.00;0.62;7.03;6.17;;;28.30;30.90;;;;;;2247986;61;20371;-55
2023/09/09 02:01:28;0.00;0.00;0.62;0.00;0.00;0.62;6.50;5.90;;;28.30;31.10;;;;;;2248336;61;20886;-60
2023/09/09 02:04:13;0.00;0.00;0.62;0.00;0.00;0.62;6.70;6.00;;;28.20;31.10;;;;;;2248188;61;20364;-61
2023/09/09 02:06:58;0.00;0.00;0.62;0.00;0.00;0.62;5.77;5.27;;;28.20;31.20;;;;;;2248363;61;20917;-60
2023/09/09 02:09:42;0.00;0.00;0.62;0.00;0.00;0.62;7.03;5.90;;;28.20;31.20;;;;;;2248109;61;20395;-58
2023/09/09 02:12:29;0.00;0.00;0.62;0.00;0.00;0.62;5.83;5.27;;;28.20;31.20;;;;;;2248621;61;20456;-61
2023/09/09 02:15:14;0.00;0.00;0.62;0.00;0.00;0.62;6.73;5.70;;;28.10;31.90;;;;;;2248365;61;20902;-54
2023/09/09 02:17:59;0.00;0.00;0.62;0.00;0.00;0.62;7.20;5.73;;;28.10;31.20;;;;;;2248160;61;20403;-57
2023/09/09 02:20:43;0.00;0.00;0.62;0.00;0.00;0.62;6.10;5.50;;;28.10;31.30;;;;;;2247797;61;20472;-59
2023/09/09 02:23:28;0.00;0.00;0.62;0.00;0.00;0.62;5.90;5.30;;;28.00;31.30;;;;;;2248801;61;20444;-53
2023/09/09 02:26:12;0.00;0.00;0.62;0.00;0.00;0.62;5.87;5.33;;;28.10;31.40;;;;;;2245074;61;20367;-52
2023/09/09 02:28:58;0.00;0.00;0.62;0.00;0.00;0.62;5.97;5.47;;;28.00;31.40;;;;;;2248314;61;21021;-59
2023/09/09 02:31:43;0.00;0.00;0.62;0.00;0.00;0.62;5.70;5.20;;;28.00;31.40;;;;;;2245369;61;20368;-57
2023/09/09 02:34:28;0.00;0.00;0.62;0.00;0.00;0.62;6.00;5.40;;;28.00;31.50;;;;;;2247926;61;20419;-53
2023/09/09 02:37:18;0.00;0.00;0.62;0.00;0.00;0.62;5.70;5.10;;;28.00;31.50;;;;;;2248376;61;20518;-58
2023/09/09 02:40:03;0.00;0.00;0.62;0.00;0.00;0.62;5.03;4.53;;;28.00;31.50;;;;;;2248401;61;20413;-60
2023/09/09 02:42:48;0.00;0.00;0.62;0.00;0.00;0.62;5.60;5.00;;;28.00;31.50;;;;;;2247774;61;20366;-61
2023/09/09 02:45:34;0.00;0.00;0.62;0.00;0.00;0.62;5.30;4.90;;;28.00;31.40;;;;;;2247534;61;20400;-57
2023/09/09 02:48:19;0.00;0.00;0.62;0.00;0.00;0.62;6.30;5.60;;;28.00;31.20;;;;;;2246991;61;20821;-58
2023/09/09 02:51:04;0.00;0.00;0.62;0.00;0.00;0.62;8.03;5.40;;;28.00;31.20;;;;;;2247613;61;20929;-58
2023/09/09 02:53:48;0.00;0.00;0.62;0.00;0.00;0.62;6.73;5.70;;;28.00;31.20;;;;;;2244808;61;20366;-60
2023/09/09 02:56:33;0.00;0.00;0.62;0.00;0.00;0.62;6.73;6.03;;;28.00;31.20;;;;;;2248203;61;20431;-56
2023/09/09 02:59:17;0.00;0.00;0.62;0.00;0.00;0.62;6.10;5.40;;;28.00;31.20;;;;;;2247888;61;20348;-60
2023/09/09 03:02:05;0.00;0.00;0.62;0.00;0.00;0.62;6.30;5.70;;;28.00;31.30;;;;;;2247922;61;20400;-54
2023/09/09 03:04:50;0.00;0.00;0.62;0.00;0.00;0.62;5.00;4.50;;;28.00;31.30;;;;;;2246980;61;20914;-59
2023/09/09 03:07:35;0.00;0.00;0.62;0.00;0.00;0.62;6.40;5.80;;;28.00;31.40;;;;;;2247267;61;20427;-58
2023/09/09 03:10:21;0.00;0.00;0.62;0.00;0.00;0.62;6.33;5.73;;;28.00;31.40;;;;;;2247824;61;20360;-61
2023/09/09 03:13:05;0.00;0.00;0.62;0.00;0.00;0.62;6.03;5.27;;;28.00;31.30;;;;;;2247271;61;20898;-57
2023/09/09 03:15:50;0.00;0.00;0.62;0.00;0.00;0.62;5.50;5.00;;;28.00;31.30;;;;;;2247410;61;20399;-57
2023/09/09 03:18:36;0.00;0.00;0.62;0.00;0.00;0.62;9.07;5.33;;;27.90;31.30;;;;;;2248139;61;20375;-60
2023/09/09 03:21:20;0.00;0.00;0.62;0.00;0.00;0.62;6.33;5.47;;;27.90;31.40;;;;;;2247476;61;20371;-58
2023/09/09 03:24:06;0.00;0.00;0.62;0.00;0.00;0.62;7.03;5.70;;;27.90;31.40;;;;;;2247691;61;20399;-60
2023/09/09 03:26:51;0.00;0.00;0.62;0.00;0.00;0.62;5.90;5.30;;;27.90;31.40;;;;;;2247908;61;20929;-62
2023/09/09 03:29:36;0.00;0.00;0.62;0.00;0.00;0.62;6.20;5.40;;;27.90;31.40;;;;;;2247650;61;20356;-58
2023/09/09 03:32:21;0.00;0.00;0.62;0.00;0.00;0.62;5.70;4.77;;;27.90;31.50;;;;;;2247461;61;20423;-57
2023/09/09 03:35:09;0.00;0.00;0.62;0.00;0.00;0.62;7.87;4.90;;;27.90;31.50;;;;;;2247069;61;20444;-59
2023/09/09 03:37:54;0.00;0.00;0.62;0.00;0.00;0.62;6.20;5.33;;;27.80;31.50;;;;;;2247227;61;20458;-60
2023/09/09 03:40:39;0.00;0.00;0.62;0.00;0.00;0.62;5.37;4.87;;;27.80;31.50;;;;;;2229947;61;1100923;-59
2023/09/09 03:43:23;0.00;0.00;0.62;0.00;0.00;0.62;6.47;5.87;;;27.80;31.60;;;;;;2247914;61;20263;-56
2023/09/09 03:46:08;0.00;0.00;0.62;0.00;0.00;0.62;6.20;5.60;;;27.70;31.60;;;;;;2247932;61;20827;-56
2023/09/09 03:48:53;0.00;0.00;0.62;0.00;0.00;0.62;6.00;5.40;;;27.70;31.60;;;;;;2247511;61;20456;-59
2023/09/09 03:51:39;0.00;0.00;0.62;0.00;0.00;0.62;5.60;5.00;;;27.70;31.70;;;;;;2247826;61;20411;-60
2023/09/09 03:54:23;0.00;0.00;0.62;0.00;0.00;0.62;6.27;5.67;;;27.70;31.70;;;;;;2247137;61;20387;-60
2023/09/09 03:57:08;0.00;0.00;0.62;0.00;0.00;0.62;6.70;5.90;;;27.70;31.90;;;;;;2247417;61;20426;-56
2023/09/09 03:59:53;0.00;0.00;0.62;0.00;0.00;0.62;6.40;5.37;;;27.60;31.80;;;;;;2247955;61;20762;-64
2023/09/09 04:02:38;0.00;0.00;0.62;0.00;0.00;0.62;6.30;5.70;;;27.60;31.80;;;;;;2247872;61;20367;-61
2023/09/09 04:05:23;0.00;0.00;0.62;0.00;0.00;0.62;6.77;5.33;;;27.60;31.80;;;;;;2247143;61;20366;-58
2023/09/09 04:08:09;0.00;0.00;0.62;0.00;0.00;0.62;5.90;5.30;;;27.50;31.70;;;;;;2247926;61;20520;-64
2023/09/09 04:10:54;0.00;0.00;0.62;0.00;0.00;0.62;6.03;4.63;;;27.50;31.80;;;;;;2247812;61;20375;-58
2023/09/09 04:13:40;0.00;0.00;0.62;0.00;0.00;0.62;5.60;5.10;;;27.50;31.80;;;;;;2247583;61;20379;-56
2023/09/09 04:16:25;0.00;0.00;0.62;0.00;0.00;0.62;12.37;5.97;;;27.40;31.70;;;;;;2247820;61;20515;-60
2023/09/09 04:19:10;0.00;0.00;0.62;0.00;0.00;0.62;6.67;5.87;;;27.40;31.70;;;;;;2247477;61;20363;-58
2023/09/09 04:21:54;0.00;0.00;0.62;0.00;0.00;0.62;6.00;5.40;;;27.40;31.70;;;;;;2248109;61;20372;-58
2023/09/09 04:24:40;0.00;0.00;0.62;0.00;0.00;0.62;7.37;5.67;;;27.40;31.70;;;;;;2247756;61;20395;-56
2023/09/09 04:27:26;0.00;0.00;0.62;0.00;0.00;0.62;6.40;5.60;;;27.40;31.70;;;;;;2247327;61;20863;-58
2023/09/09 04:30:12;0.00;0.00;0.62;0.00;0.00;0.62;7.90;5.57;;;27.40;31.70;;;;;;2247744;61;20411;-61
2023/09/09 04:32:58;0.00;0.00;0.62;0.00;0.00;0.62;5.80;5.20;;;27.30;31.60;;;;;;2248221;61;20422;-57
2023/09/09 04:35:43;0.00;0.00;0.62;0.00;0.00;0.62;6.60;5.50;;;27.30;31.70;;;;;;2247312;61;20918;-57
2023/09/09 04:38:29;0.00;0.00;0.62;0.00;0.00;0.62;6.80;6.10;;;27.30;31.70;;;;;;2247815;61;20878;-58
2023/09/09 04:41:16;0.00;0.00;0.62;0.00;0.00;0.62;5.50;4.73;;;27.20;31.70;;;;;;2247791;61;20794;-60
2023/09/09 04:44:00;0.00;0.00;0.62;0.00;0.00;0.62;7.53;5.30;;;27.20;31.70;;;;;;2248263;61;20371;-58
2023/09/09 04:46:45;0.00;0.00;0.62;0.00;0.00;0.62;5.43;4.93;;;27.20;31.80;;;;;;2247921;61;20390;-59
2023/09/09 04:49:30;0.00;0.00;0.62;0.00;0.00;0.62;7.10;5.10;;;27.20;31.80;;;;;;2247330;61;20933;-56
2023/09/09 04:52:15;0.00;0.00;0.62;0.00;0.00;0.62;8.50;5.70;;;27.20;31.90;;;;;;2247718;61;20439;-58
2023/09/09 04:55:00;0.00;0.00;0.62;0.00;0.00;0.62;6.33;5.53;;;27.10;31.80;;;;;;2247719;61;20364;-55
2023/09/09 04:57:46;0.00;0.00;0.62;0.00;0.00;0.62;5.90;5.30;;;27.10;31.90;;;;;;2247575;61;20435;-57
2023/09/09 05:00:32;0.00;0.00;0.62;0.00;0.00;0.62;5.73;5.10;;;27.10;32.00;;;;;;2247790;61;20422;-53
2023/09/09 05:03:16;0.00;0.00;0.62;0.00;0.00;0.62;7.80;5.63;;;27.10;32.00;;;;;;2247313;61;20407;-54
2023/09/09 05:06:01;0.00;0.00;0.62;0.00;0.00;0.62;8.10;5.40;;;27.10;32.00;;;;;;2247119;61;20905;-55
2023/09/09 05:08:46;0.00;0.00;0.62;0.00;0.00;0.62;6.17;5.57;;;27.10;32.00;;;;;;2247551;61;20447;-60
2023/09/09 05:11:31;0.00;0.00;0.62;0.00;0.00;0.62;6.20;5.60;;;27.00;32.10;;;;;;2247760;61;20929;-58
2023/09/09 05:14:17;0.00;0.00;0.62;0.00;0.00;0.62;6.53;5.87;;;27.00;32.20;;;;;;2247779;61;20367;-61
2023/09/09 05:17:01;0.00;0.00;0.62;0.00;0.00;0.62;5.87;5.27;;;27.00;32.20;;;;;;2248352;61;20427;-57
2023/09/09 05:19:47;0.00;0.00;0.62;0.00;0.00;0.62;5.97;5.47;;;27.00;32.30;;;;;;2248139;61;20974;-58
2023/09/09 05:22:31;0.00;0.00;0.62;0.00;0.00;0.62;6.30;5.40;;;26.90;32.30;;;;;;2248368;61;20362;-58
2023/09/09 05:25:16;0.00;0.00;0.62;0.00;0.00;0.62;6.83;6.23;;;26.90;32.30;;;;;;2248148;61;20376;-61
2023/09/09 05:28:01;0.00;0.00;0.62;0.00;0.00;0.62;6.53;5.83;;;26.90;32.40;;;;;;2248721;61;20398;-58
2023/09/09 05:30:47;0.00;0.00;0.62;0.00;0.00;0.62;6.60;6.00;;;26.90;32.40;;;;;;2248656;61;20878;-59
2023/09/09 05:33:32;0.00;0.00;0.62;0.00;0.00;0.62;6.43;5.20;;;26.90;32.40;;;;;;2248424;61;20858;-58
2023/09/09 05:36:16;0.00;0.00;0.62;0.00;0.00;0.62;7.00;5.63;;;26.80;32.40;;;;;;2248179;61;20382;-58
2023/09/09 05:39:01;0.00;0.00;0.62;0.00;0.00;0.62;5.83;5.30;;;26.80;32.40;;;;;;2249934;61;20370;-58
2023/09/09 05:41:48;0.00;0.00;0.62;0.00;0.00;0.62;6.90;6.13;;;26.80;32.40;;;;;;2251693;61;20378;-57
2023/09/09 05:44:36;0.00;0.00;0.62;0.00;0.00;0.62;6.23;5.53;;;26.80;32.40;;;;;;2251823;61;20410;-61
2023/09/09 05:47:22;0.00;0.00;0.62;0.00;0.00;0.62;5.10;4.60;;;26.80;32.50;;;;;;2251435;61;20923;-60
2023/09/09 05:50:08;0.00;0.00;0.62;0.00;0.00;0.62;6.87;5.20;;;26.80;32.60;;;;;;2252179;61;20366;-59
2023/09/09 05:52:53;0.00;0.00;0.62;0.00;0.00;0.62;6.87;5.23;;;26.80;32.70;;;;;;2254852;61;20773;-59
2023/09/09 05:55:38;0.00;0.00;0.62;0.00;0.00;0.62;6.97;5.20;;;26.80;32.70;;;;;;2251615;61;20367;-56
2023/09/09 05:58:22;0.00;0.00;0.62;0.00;0.00;0.62;5.40;4.90;;;26.80;32.70;;;;;;2252279;61;20448;-56
2023/09/09 06:01:07;0.00;0.00;0.62;0.00;0.00;0.62;6.60;5.40;;;26.80;32.70;;;;;;2252378;61;20363;-59
2023/09/09 06:03:54;0.00;0.00;0.62;0.00;0.00;0.62;7.10;6.40;;;26.70;32.60;;;;;;2251800;61;20587;-54
2023/09/09 06:06:40;0.00;0.00;0.62;0.00;0.00;0.62;6.50;5.90;;;26.70;32.60;;;;;;2252016;61;20390;-59
2023/09/09 06:09:24;0.00;0.00;0.62;0.00;0.00;0.62;6.03;5.53;;;26.70;32.70;;;;;;2252206;61;20400;-57
2023/09/09 06:12:09;0.00;0.00;0.62;0.00;0.00;0.62;6.90;6.20;;;26.70;32.80;;;;;;2252303;61;20441;-57
2023/09/09 06:14:54;0.00;0.00;0.62;0.00;0.00;0.62;7.60;5.73;;;26.70;32.80;;;;;;2251916;61;20366;-59
2023/09/09 06:17:41;0.00;0.00;0.62;0.00;0.00;0.62;8.47;5.73;;;26.70;32.80;;;;;;2251913;61;20426;-59
2023/09/09 06:20:27;0.00;0.00;0.62;0.00;0.00;0.62;7.20;6.50;;;26.70;32.90;;;;;;2252384;61;20401;-56
2023/09/09 06:23:13;0.00;0.00;0.62;0.00;0.00;0.62;5.93;5.33;;;26.70;32.90;;;;;;2252106;61;20370;-57
2023/09/09 06:25:58;0.00;0.00;0.62;0.00;0.00;0.62;7.20;5.53;;;26.70;33.00;;;;;;2251568;61;20418;-55
2023/09/09 06:28:43;0.00;0.00;0.62;0.00;0.00;0.62;6.87;6.20;;;26.70;33.00;;;;;;2251951;61;20835;-56
2023/09/09 06:31:27;0.00;0.00;0.62;0.00;0.00;0.62;6.93;6.23;;;26.70;33.10;;;;;;2252641;61;20455;-56
2023/09/09 06:34:12;0.00;0.00;0.62;0.00;0.00;0.62;6.93;5.30;;;26.60;33.10;;;;;;2252248;61;20888;-53
2023/09/09 06:36:58;0.00;0.00;0.62;0.00;0.00;0.62;7.93;5.80;;;26.60;33.20;;;;;;2252338;61;20434;-62
2023/09/09 06:39:43;0.00;0.00;0.62;0.00;0.00;0.62;6.33;5.17;;;26.60;33.30;;;;;;2252283;61;20786;-53
2023/09/09 06:42:28;0.00;0.00;0.62;0.00;0.00;0.62;6.27;5.70;;;26.60;33.40;;;;;;2252549;61;20774;-58
2023/09/09 06:45:16;0.00;0.00;0.62;0.00;0.00;0.62;5.83;5.23;;;26.60;33.40;;;;;;2251723;61;20375;-60
2023/09/09 06:48:03;0.00;0.00;0.62;0.00;0.00;0.62;5.70;5.20;;;26.60;33.50;;;;;;2251528;61;20402;-57
2023/09/09 06:50:48;0.00;0.00;0.62;0.00;0.00;0.62;6.37;5.77;;;26.60;33.60;;;;;;2252499;61;20367;-58
2023/09/09 06:53:34;0.00;0.00;0.62;0.00;0.00;0.62;5.80;5.27;;;26.70;33.70;;;;;;2252580;61;20913;-56
2023/09/09 06:56:18;0.00;0.00;0.62;0.00;0.00;0.62;6.47;5.97;;;26.70;33.80;;;;;;2251679;61;20390;-58
2023/09/09 06:59:03;0.00;0.00;0.62;0.00;0.00;0.62;5.63;5.13;;;26.70;33.90;;;;;;2252746;61;20367;-59
2023/09/09 07:01:48;0.00;0.00;0.62;0.00;0.00;0.62;6.87;6.20;;;26.70;33.90;;;;;;2252334;61;20716;-58
2023/09/09 07:04:33;0.00;0.00;0.62;0.00;0.00;0.62;7.20;6.20;;;26.70;34.00;;;;;;2252233;61;20358;-58
2023/09/09 07:07:17;0.00;0.00;0.62;0.00;0.00;0.62;6.37;5.77;;;26.70;34.10;;;;;;2252350;61;20470;-56
2023/09/09 07:10:04;0.00;0.00;0.62;0.00;0.00;0.62;6.50;5.13;;;26.70;34.20;;;;;;2252153;61;20392;-59
2023/09/09 07:12:51;0.00;0.00;0.62;0.00;0.00;0.62;6.43;5.83;;;26.70;34.30;;;;;;2252329;61;20896;-60
2023/09/09 07:15:37;0.00;0.00;0.62;0.00;0.00;0.62;7.00;5.57;;;26.70;34.30;;;;;;2252155;61;20916;-58
2023/09/09 07:18:22;0.00;0.00;0.62;0.00;0.00;0.62;6.23;5.33;;;26.70;34.70;;;;;;2252112;61;20960;-61
2023/09/09 07:21:07;0.00;0.00;0.62;0.00;0.00;0.62;7.27;5.13;;;26.70;34.40;;;;;;2252508;61;20371;-59
2023/09/09 07:23:52;0.00;0.00;0.62;0.00;0.00;0.62;5.53;5.03;;;26.70;34.50;;;;;;2252153;61;20398;-57
2023/09/09 07:26:38;0.00;0.00;0.62;0.00;0.00;0.62;7.93;5.90;;;26.80;34.60;;;;;;2252081;61;20386;-59
2023/09/09 07:29:22;0.00;0.00;0.62;0.00;0.00;0.62;5.97;5.37;;;26.80;34.60;;;;;;2252379;61;20436;-58
2023/09/09 07:32:07;0.00;0.00;0.62;0.00;0.00;0.62;6.37;5.70;;;26.80;34.60;;;;;;2251835;61;20414;-63
2023/09/09 07:34:51;0.00;0.00;0.62;0.00;0.00;0.62;5.97;5.37;;;26.80;34.80;;;;;;2251922;61;20464;-54
2023/09/09 07:37:36;0.00;0.00;0.62;0.00;0.00;0.62;6.47;5.77;;;26.90;34.90;;;;;;2270329;58;20449;-60
2023/09/09 07:40:21;0.00;0.00;0.62;0.00;0.00;0.62;6.60;6.00;;;26.90;35.00;;;;;;2252008;61;20418;-60
2023/09/09 07:43:06;0.00;0.00;0.62;0.00;0.00;0.62;6.03;5.47;;;26.90;35.10;;;;;;2252254;61;20367;-54
2023/09/09 07:45:51;0.00;0.00;0.62;0.00;0.00;0.62;6.53;5.60;;;27.00;35.20;;;;;;2251223;61;20375;-59
2023/09/09 07:48:36;0.00;0.00;0.62;0.00;0.00;0.62;9.00;6.10;;;27.00;35.30;;;;;;2252121;61;20441;-58
2023/09/09 07:51:20;0.00;0.00;0.62;0.00;0.00;0.62;8.00;6.90;;;27.00;35.30;;;;;;2252373;61;20375;-55
2023/09/09 07:54:05;0.00;0.00;0.62;0.00;0.00;0.62;5.57;5.10;;;27.00;35.30;;;;;;2252047;61;20370;-59
2023/09/09 07:56:50;0.00;0.00;0.62;0.00;0.00;0.62;8.03;6.40;;;27.10;35.40;;;;;;2251875;61;20490;-59
2023/09/09 07:59:39;0.00;0.00;0.62;0.00;0.00;0.62;8.87;6.47;;;27.10;35.40;;;;;;2252033;61;20455;-56
2023/09/09 08:02:23;0.00;0.00;0.62;0.00;0.00;0.62;7.53;5.97;;;27.10;35.60;;;;;;2251952;61;20374;-53
2023/09/09 08:05:08;0.00;0.00;0.62;0.00;0.00;0.62;6.27;5.77;;;27.20;35.60;;;;;;2251961;61;20370;-59
2023/09/09 08:07:53;0.00;0.00;0.62;0.00;0.00;0.62;7.03;5.73;;;27.20;35.60;;;;;;2252151;61;20390;-55
2023/09/09 08:10:38;0.00;0.00;0.62;0.00;0.00;0.62;6.23;5.63;;;27.20;35.60;;;;;;2251507;61;20417;-59
2023/09/09 08:13:23;0.00;0.00;0.62;0.00;0.00;0.62;6.77;6.17;;;27.30;35.80;;;;;;2251918;61;20919;-58
2023/09/09 08:16:09;0.00;0.00;0.62;0.00;0.00;0.62;7.23;6.20;;;27.30;35.80;;;;;;2251312;61;20455;-56
2023/09/09 08:18:54;0.00;0.00;0.62;0.00;0.00;0.62;8.10;6.03;;;27.40;35.90;;;;;;2251706;61;20760;-53
2023/09/09 08:21:39;0.00;0.00;0.62;0.00;0.00;0.62;12.40;5.70;;;27.40;35.80;;;;;;2251595;61;20940;-59
2023/09/09 08:24:23;0.00;0.00;0.62;0.00;0.00;0.62;7.23;6.50;;;27.40;35.80;;;;;;2251691;61;20881;-60
2023/09/09 08:27:08;0.00;0.00;0.62;0.00;0.00;0.62;6.37;5.73;;;27.50;36.50;;;;;;2252123;61;20433;-61
2023/09/09 08:29:53;0.00;0.00;0.62;0.00;0.00;0.62;6.67;6.10;;;27.50;35.80;;;;;;2252139;61;20382;-56
2023/09/09 08:32:40;0.00;0.00;0.62;0.00;0.00;0.62;6.23;5.63;;;27.60;35.80;;;;;;2252015;61;20459;-54
2023/09/09 08:35:24;0.00;0.00;0.62;0.00;0.00;0.62;6.40;5.80;;;27.60;35.70;;;;;;2251919;61;20788;-58
2023/09/09 08:38:09;0.00;0.00;0.62;0.00;0.00;0.62;6.60;6.00;;;27.70;35.70;;;;;;2251837;61;20383;-60
2023/09/09 08:41:00;0.00;0.00;0.62;0.00;0.00;0.62;6.10;5.60;;;27.70;35.70;;;;;;2252104;61;20454;-55
2023/09/09 08:44:03;0.00;0.00;0.62;0.00;0.00;0.62;8.23;5.53;;;27.70;35.60;;;;;;2252032;61;20422;-57
2023/09/09 08:46:48;0.00;0.00;0.62;0.00;0.00;0.62;6.77;6.17;;;27.80;35.60;;;;;;2251038;61;20378;-58
2023/09/09 08:49:36;0.00;0.00;0.62;0.00;0.00;0.62;5.90;5.40;;;27.80;35.60;;;;;;2252168;61;20403;-55
2023/09/09 08:52:27;0.00;0.00;0.62;0.00;0.00;0.62;6.83;5.30;;;27.90;35.60;;;;;;2252365;61;20821;-56
2023/09/09 08:55:12;0.00;0.00;0.62;0.00;0.00;0.62;5.50;5.00;;;27.90;35.50;;;;;;2252609;61;20410;-60
2023/09/09 08:57:56;0.00;0.00;0.62;0.00;0.00;0.62;5.73;5.00;;;28.00;35.50;;;;;;2252813;61;20425;-61
2023/09/09 09:00:41;0.00;0.00;0.62;0.00;0.00;0.62;6.40;5.80;;;28.00;35.50;;;;;;2252513;61;20547;-59
2023/09/09 09:03:26;0.00;0.00;0.62;0.00;0.00;0.62;6.60;5.93;;;28.00;35.50;;;;;;2253049;61;20362;-58
2023/09/09 09:06:12;0.00;0.00;0.62;0.00;0.00;0.62;6.30;5.50;;;28.10;35.50;;;;;;2252712;61;20371;-55
2023/09/09 09:08:57;0.00;0.00;0.62;0.00;0.00;0.62;6.37;5.70;;;28.10;35.50;;;;;;2252375;61;20394;-58
2023/09/09 09:11:44;0.00;0.00;0.62;0.00;0.00;0.62;8.37;6.23;;;28.10;35.40;;;;;;2252960;61;20374;-58
2023/09/09 09:14:29;0.00;0.00;0.62;0.00;0.00;0.62;6.80;5.77;;;28.20;35.50;;;;;;2253005;61;20506;-58
2023/09/09 09:17:16;0.00;0.00;0.62;0.00;0.00;0.62;8.80;5.90;;;28.30;35.50;;;;;;2252602;61;20398;-55
2023/09/09 09:20:02;0.00;0.00;0.62;0.00;0.00;0.62;7.20;6.50;;;28.30;35.50;;;;;;2252960;61;20465;-59
2023/09/09 09:22:48;0.00;0.00;0.62;0.00;0.00;0.62;6.70;5.87;;;28.30;35.50;;;;;;2252410;61;20375;-57
2023/09/09 09:25:37;0.00;0.00;0.62;0.00;0.00;0.62;7.73;7.03;;;28.40;35.50;;;;;;2252341;61;20437;-57
2023/09/09 09:28:27;0.00;0.00;0.62;0.00;0.00;0.62;6.20;5.27;;;28.40;35.40;;;;;;2252690;61;20896;-54
2023/09/09 09:31:20;0.00;0.00;0.62;0.00;0.00;0.62;6.10;5.60;;;28.40;35.30;;;;;;2252447;61;20437;-56
2023/09/09 09:34:04;0.00;0.00;0.62;0.00;0.00;0.62;6.43;5.83;;;28.40;35.30;;;;;;2252724;61;20367;-58
2023/09/09 09:36:49;0.00;0.00;0.62;0.00;0.00;0.62;6.13;5.63;;;28.50;35.20;;;;;;2252410;61;20387;-60
2023/09/09 09:39:36;0.00;0.00;0.62;0.00;0.00;0.62;7.10;5.40;;;28.50;35.10;;;;;;2252937;61;20460;-56
2023/09/09 09:42:21;0.00;0.00;0.62;0.00;0.00;0.62;5.10;4.60;;;28.60;35.00;;;;;;2252577;61;20383;-58
2023/09/09 09:45:10;0.00;0.00;0.62;0.00;0.00;0.62;6.70;5.33;;;28.70;35.10;;;;;;2252186;61;20366;-59
2023/09/09 09:47:56;0.00;0.00;0.62;0.00;0.00;0.62;6.20;5.60;;;28.70;35.10;;;;;;2252050;61;20481;-60
2023/09/09 09:50:41;0.00;0.00;0.62;0.00;0.00;0.62;6.00;5.40;;;28.70;35.00;;;;;;2252921;61;20426;-60
2023/09/09 09:53:26;0.00;0.00;0.62;0.00;0.00;0.62;5.87;5.37;;;28.70;34.80;;;;;;2251928;61;20885;-59
2023/09/09 09:56:12;0.00;0.00;0.62;0.00;0.00;0.62;5.70;5.20;;;28.80;35.00;;;;;;2252420;61;20417;-53
2023/09/09 09:58:57;0.00;0.00;0.62;0.00;0.00;0.62;5.60;5.10;;;28.80;35.10;;;;;;2254670;61;20359;-50
2023/09/09 10:01:42;0.00;0.00;0.62;0.00;0.00;0.62;5.70;5.10;;;28.90;35.20;;;;;;2252619;61;20421;-60
2023/09/09 10:04:30;0.00;0.00;0.62;0.00;0.00;0.62;5.80;5.30;;;28.90;35.20;;;;;;2252669;61;20363;-58
2023/09/09 10:07:23;0.00;0.00;0.62;0.00;0.00;0.62;6.03;5.40;;;28.90;35.00;;;;;;2252464;61;20442;-61
2023/09/09 10:10:12;0.00;0.00;0.62;0.00;0.00;0.62;5.03;4.53;;;29.00;34.90;;;;;;2252601;61;20994;-60
2023/09/09 10:13:04;0.00;0.00;0.62;0.00;0.00;0.62;5.17;4.40;;;29.00;34.50;;;;;;2252190;61;20934;-61
2023/09/09 10:15:50;0.00;0.00;0.62;0.00;0.00;0.62;4.93;4.40;;;29.10;34.30;;;;;;2251904;61;20418;-65
2023/09/09 10:18:37;0.00;0.00;0.62;0.00;0.00;0.62;5.23;4.80;;;29.10;34.10;;;;;;2252706;61;20406;-61
2023/09/09 10:21:22;0.00;0.00;0.62;0.00;0.00;0.62;5.63;4.77;;;29.10;33.80;;;;;;2252124;61;20421;-60
2023/09/09 10:24:07;0.00;0.00;0.62;0.00;0.00;0.62;5.33;4.83;;;29.20;33.40;;;;;;2252530;61;20455;-60
2023/09/09 10:26:53;0.00;0.00;0.62;0.00;0.00;0.62;5.93;4.90;;;29.30;33.20;;;;;;2252214;61;20387;-60
2023/09/09 10:29:41;0.00;0.00;0.62;0.00;0.00;0.62;6.73;4.90;;;29.30;33.00;;;;;;2252134;61;20988;-61
2023/09/09 10:32:28;0.00;0.00;0.62;0.00;0.00;0.62;4.77;4.37;;;29.30;33.00;;;;;;2252711;61;20362;-60
2023/09/09 10:35:15;0.00;0.00;0.62;0.00;0.00;0.62;4.80;4.40;;;29.40;32.70;;;;;;2252333;61;20448;-60
2023/09/09 10:38:02;0.00;0.00;0.62;0.00;0.00;0.62;5.20;4.70;;;29.40;32.40;;;;;;2252066;61;20398;-59
2023/09/09 10:40:48;0.00;0.00;0.62;0.00;0.00;0.62;4.90;4.40;;;29.50;32.10;;;;;;2703136;45;20837;-65
2023/09/09 10:43:32;0.00;0.00;0.62;0.00;0.00;0.62;4.90;4.50;;;29.50;31.80;;;;;;2247809;61;20774;-63
2023/09/09 10:46:32;0.00;0.00;0.62;0.00;0.00;0.62;5.50;4.93;;;29.60;31.60;;;;;;2248075;61;20375;-62
2023/09/09 10:49:17;0.00;0.00;0.62;0.00;0.00;0.62;5.53;5.03;;;29.60;31.60;;;;;;2248014;61;20937;-63
2023/09/09 10:52:01;0.00;0.00;0.62;0.00;0.00;0.62;5.03;4.60;;;29.60;31.40;;;;;;2249501;61;20414;-62
2023/09/09 10:54:46;0.00;0.00;0.62;0.00;0.00;0.62;4.97;4.47;;;29.70;31.20;;;;;;2252051;61;20390;-63